Akron, CO

1:04 AM MDT on September 03, 2014 (GMT -0600)
Akron-Washington County | Change Station
CLOSE
Current Station
Airport
Location: Akron,
Elevation: 4662 ft
Nearby Weather Stations

Elev 4662 ft 40.17 °N, 103.21 °W | Updated 11 minutes ago

Clear
Clear
68 °F
Feels Like 68 °F
N
13
Wind Variable Wind from South
Gusts 25 mph

Today
High -- | Low -- °F
--% Chance of Precip.
Yesterday
High -- | Low -- °F
Precip. -- in
6:22 AM 7:21 PM
First Quarter, 59% visible
Pressure 29.75 in
Visibility 10.0 miles
Clouds Clear
Dew Point 59 °F
Humidity 73%
Rainfall 0.00 in
Snow Depth Not available.
UV 0 out of 12
Pollen 10.10 out of 12
Air Quality Not available.
Flu Activity Not available.
METAR KAKO 030653Z AUTO 18011G22KT 10SM CLR 20/15 A2993 RMK AO2 SLP073 T02000150 402890089

More Conditions Fewer Conditions

Pressure 29.75 in
Visibility 10.0 miles
Clouds Clear
Dew Point 59 °F
Humidity 73%
Rainfall 0.00 in
Snow Depth Not available.
UV 0 out of 12
Pollen 10.10 out of 12
Air Quality Not available.
Flu Activity Not available.
METAR KAKO 030653Z AUTO 18011G22KT 10SM CLR 20/15 A2993 RMK AO2 SLP073 T02000150 402890089

More Conditions Fewer Conditions

10-Day Weather Forecast

Almanac

Astronomy

Sep. 03, 2014 Rise Set
Actual Time 6:22 AM MDT 7:21 PM MDT
Civil Twilight 5:54 AM MDT 7:48 PM MDT
Nautical Twilight 5:21 AM MDT 8:21 PM MDT
Astronomical Twilight 4:47 AM MDT 8:55 PM MDT
Moon 3:05 PM MDT 12:18 AM MDT
Length of Visible Light 13h 53m
Length of Day
12h 58m
Tomorrow will be 2m 33s shorter.
First Quarter, 59% of the Moon is Illuminated
Today
First Quarter
Sep 8
Full
Sep 15
Last Quarter
Sep 24
New
Oct 1
First Quarter

Today's Extremes

State Highs State Lows

Community

WunderPhotos

Upload Photos

1,749,888 photos uploaded!

Nearby

Snow Depth

Station Depth Elevation
Niwot 0 in 9910 ft
University Camp 0 in 10300 ft
Copeland Lake 0 in 8600 ft
Wild Basin 0 in 9560 ft
Echo Lake 0 in 10600 ft

Earthquake Activity

City Distance Mag. Time & Date
No recent earthquake activity has been reported nearby.
Minimum magnitude displayed is 2.5.

Coastal Water Temperatures

Place Temperature
No Stations Reporting

Nearby Weather Stations